createdAt,value
2023-01-19T00:00:55.497Z,95.57
2023-01-19T00:03:22.584Z,94.29
2023-01-19T00:05:49.709Z,94.17
2023-01-19T00:08:17.656Z,93.70
2023-01-19T00:10:46.034Z,93.29
2023-01-19T00:13:14.275Z,93.16
2023-01-19T00:15:41.414Z,93.67
2023-01-19T00:18:10.624Z,93.01
2023-01-19T00:20:38.083Z,93.27
2023-01-19T00:23:05.121Z,92.29
2023-01-19T00:25:32.191Z,93.14
2023-01-19T00:28:01.546Z,92.38
2023-01-19T00:30:28.698Z,92.65
2023-01-19T00:32:55.965Z,92.52
2023-01-19T00:35:22.925Z,93.22
2023-01-19T00:37:52.745Z,92.05
2023-01-19T00:40:19.818Z,93.01
2023-01-19T00:42:48.524Z,93.80
2023-01-19T00:45:19.451Z,94.25
2023-01-19T00:47:47.895Z,94.29
2023-01-19T00:50:16.864Z,94.39
2023-01-19T00:52:45.211Z,94.03
2023-01-19T00:55:14.597Z,94.21
2023-01-19T00:57:42.409Z,93.94
2023-01-19T01:00:13.650Z,93.27
2023-01-19T01:02:42.349Z,93.90
2023-01-19T01:05:10.272Z,94.45
2023-01-19T01:07:45.480Z,94.14
2023-01-19T01:10:17.768Z,93.13
2023-01-19T01:12:54.943Z,91.67
2023-01-19T01:15:33.016Z,92.28
2023-01-19T01:17:59.691Z,92.09
2023-01-19T01:20:28.697Z,91.74
2023-01-19T01:22:57.010Z,91.32
2023-01-19T01:25:25.433Z,91.47
2023-01-19T01:27:53.150Z,90.48
2023-01-19T01:30:20.978Z,90.66
2023-01-19T01:32:47.651Z,89.93
2023-01-19T01:35:14.805Z,89.58
2023-01-19T01:37:42.934Z,90.08
2023-01-19T01:40:13.779Z,89.81
2023-01-19T01:42:40.764Z,89.43
2023-01-19T01:45:16.777Z,89.29
2023-01-19T01:47:47.459Z,90.14
2023-01-19T01:50:27.641Z,89.98
2023-01-19T01:53:06.910Z,89.24
2023-01-19T01:55:39.227Z,89.32
2023-01-19T01:58:08.995Z,88.02
2023-01-19T02:00:55.047Z,88.75
2023-01-19T02:03:24.307Z,89.21
2023-01-19T02:05:52.103Z,89.80
2023-01-19T02:09:01.106Z,89.92
2023-01-19T02:11:48.780Z,90.44
2023-01-19T02:14:15.519Z,89.80
2023-01-19T02:16:42.725Z,90.86
2023-01-19T02:19:16.816Z,91.10
2023-01-19T02:21:55.069Z,90.14
2023-01-19T02:24:22.179Z,89.67
2023-01-19T02:26:49.573Z,89.55
2023-01-19T02:29:23.232Z,89.59
2023-01-19T02:31:50.653Z,89.74
2023-01-19T02:34:21.048Z,90.01
2023-01-19T02:37:15.343Z,89.97
2023-01-19T02:39:45.309Z,90.75
2023-01-19T02:42:17.638Z,91.30
2023-01-19T02:44:52.047Z,92.09
2023-01-19T02:47:19.831Z,93.87
2023-01-19T02:49:55.909Z,94.97
2023-01-19T02:52:22.875Z,93.64
2023-01-19T02:54:55.404Z,93.44
2023-01-19T02:57:24.652Z,94.38
2023-01-19T03:00:12.387Z,95.76
2023-01-19T03:02:51.049Z,96.06
2023-01-19T03:05:34.385Z,97.67
2023-01-19T03:08:34.275Z,97.36
2023-01-19T03:11:04.568Z,100.00
2023-01-19T03:13:52.922Z,99.10
2023-01-19T03:16:25.705Z,98.37
2023-01-19T03:19:02.567Z,95.65
2023-01-19T03:21:30.916Z,94.51
2023-01-19T03:24:02.985Z,94.79
2023-01-19T03:26:35.275Z,93.32
2023-01-19T03:29:04.556Z,92.02
2023-01-19T03:31:33.281Z,93.42
2023-01-19T03:34:08.103Z,93.68
2023-01-19T03:36:45.124Z,92.85
2023-01-19T03:39:15.568Z,92.56
2023-01-19T03:41:44.790Z,92.12
2023-01-19T03:44:12.236Z,91.29
2023-01-19T03:46:40.475Z,90.46
2023-01-19T03:49:08.592Z,91.63
2023-01-19T03:51:37.711Z,91.79
2023-01-19T03:54:05.866Z,90.65
2023-01-19T03:56:33.868Z,89.89
2023-01-19T03:59:00.681Z,92.11
2023-01-19T04:01:27.847Z,92.51
2023-01-19T04:03:54.973Z,92.82
2023-01-19T04:06:22.061Z,94.31
2023-01-19T04:08:50.547Z,95.60
2023-01-19T04:11:17.758Z,95.28
2023-01-19T04:13:47.969Z,93.63
2023-01-19T04:16:20.168Z,90.01
2023-01-19T04:18:47.557Z,86.99
2023-01-19T04:21:14.944Z,85.98
2023-01-19T04:23:42.347Z,83.92
2023-01-19T04:26:09.571Z,83.22
2023-01-19T04:28:39.634Z,82.08
2023-01-19T04:31:07.609Z,83.11
2023-01-19T04:33:34.448Z,82.69
2023-01-19T04:36:01.959Z,81.16
2023-01-19T04:38:28.742Z,80.85
2023-01-19T04:40:55.927Z,81.54
2023-01-19T04:43:24.061Z,80.14
2023-01-19T04:45:53.998Z,80.78
2023-01-19T04:48:20.900Z,82.01
2023-01-19T04:50:47.880Z,82.93
2023-01-19T04:53:16.404Z,82.29
2023-01-19T04:55:43.579Z,81.73
2023-01-19T04:58:10.412Z,80.35
2023-01-19T05:00:37.162Z,79.79
2023-01-19T05:03:05.341Z,80.13
2023-01-19T05:05:33.734Z,79.56
2023-01-19T05:08:00.828Z,78.71
2023-01-19T05:10:27.613Z,79.42
2023-01-19T05:12:54.692Z,79.66
2023-01-19T05:15:22.096Z,79.57
2023-01-19T05:17:49.082Z,79.90
2023-01-19T05:20:16.481Z,80.01
2023-01-19T05:22:50.933Z,80.20
2023-01-19T05:25:18.821Z,81.01
2023-01-19T05:27:45.908Z,80.76
2023-01-19T05:30:13.670Z,81.52
2023-01-19T05:32:40.419Z,81.72
2023-01-19T05:35:07.977Z,81.69
2023-01-19T05:37:34.976Z,82.40
2023-01-19T05:40:01.855Z,82.95
2023-01-19T05:42:28.495Z,83.31
2023-01-19T05:44:55.688Z,83.38
2023-01-19T05:47:22.390Z,83.46
2023-01-19T05:49:49.128Z,84.71
2023-01-19T05:52:16.357Z,83.87
2023-01-19T05:54:43.040Z,84.36
2023-01-19T05:57:10.997Z,84.45
2023-01-19T05:59:37.988Z,83.88
2023-01-19T06:02:04.662Z,84.36
2023-01-19T06:04:31.409Z,83.70
2023-01-19T06:06:58.159Z,84.21
2023-01-19T06:09:25.004Z,83.43
2023-01-19T06:11:54.237Z,82.78
2023-01-19T06:14:21.235Z,82.99
2023-01-19T06:16:47.981Z,82.45
2023-01-19T06:19:15.094Z,82.38
2023-01-19T06:21:44.733Z,81.89
2023-01-19T06:24:13.694Z,82.40
2023-01-19T06:26:40.679Z,82.05
2023-01-19T06:29:07.364Z,82.21
2023-01-19T06:31:34.034Z,81.53
2023-01-19T06:34:01.346Z,81.00
2023-01-19T06:36:28.215Z,81.13
2023-01-19T06:38:54.976Z,81.95
2023-01-19T06:41:22.090Z,80.91
2023-01-19T06:43:49.278Z,80.31
2023-01-19T06:46:16.399Z,80.56
2023-01-19T06:48:43.365Z,80.29
2023-01-19T06:51:13.322Z,79.35
2023-01-19T06:53:40.362Z,79.47
2023-01-19T06:56:08.229Z,80.08
2023-01-19T06:58:35.361Z,80.10
2023-01-19T07:01:04.307Z,81.16
2023-01-19T07:03:32.256Z,81.56
2023-01-19T07:06:02.351Z,82.07
2023-01-19T07:08:30.509Z,81.98
2023-01-19T07:11:24.856Z,82.30
2023-01-19T07:13:55.671Z,82.70
2023-01-19T07:16:22.503Z,83.00
2023-01-19T07:18:50.100Z,83.15
2023-01-19T07:21:17.317Z,83.94
2023-01-19T07:23:44.083Z,83.00
2023-01-19T07:26:11.201Z,83.07
2023-01-19T07:28:38.122Z,82.74
2023-01-19T07:31:05.255Z,82.67
2023-01-19T07:33:32.520Z,82.52
2023-01-19T07:35:59.451Z,82.27
2023-01-19T07:38:26.235Z,82.43
2023-01-19T07:41:04.636Z,82.05
2023-01-19T07:43:32.047Z,80.75
2023-01-19T07:46:00.870Z,80.51
2023-01-19T07:48:28.127Z,80.82
2023-01-19T07:51:11.074Z,81.13
2023-01-19T07:53:40.295Z,80.73
2023-01-19T07:56:08.011Z,79.87
2023-01-19T07:58:35.239Z,80.32
2023-01-19T08:01:06.871Z,80.82
2023-01-19T08:03:33.723Z,79.64
2023-01-19T08:06:00.926Z,78.37
2023-01-19T08:08:29.751Z,78.13
2023-01-19T08:10:58.163Z,77.67
2023-01-19T08:13:25.745Z,77.80
2023-01-19T08:15:54.252Z,76.51
2023-01-19T08:18:21.330Z,75.88
2023-01-19T08:20:48.354Z,75.93
2023-01-19T08:23:15.418Z,76.21
2023-01-19T08:25:45.175Z,75.13
2023-01-19T08:28:17.097Z,75.44
2023-01-19T08:30:45.150Z,74.09
2023-01-19T08:33:13.891Z,73.13
2023-01-19T08:35:42.918Z,72.10
2023-01-19T08:38:10.826Z,71.93
2023-01-19T08:40:38.810Z,71.91
2023-01-19T08:43:13.282Z,71.81
2023-01-19T08:45:42.557Z,72.37
2023-01-19T08:48:10.539Z,72.12
2023-01-19T08:50:38.032Z,72.01
2023-01-19T08:53:07.305Z,72.43
2023-01-19T08:55:36.274Z,72.50
2023-01-19T08:58:04.679Z,72.09
2023-01-19T09:00:34.358Z,72.32
2023-01-19T09:03:05.414Z,71.61
2023-01-19T09:05:40.441Z,71.40
2023-01-19T09:08:09.516Z,70.89
2023-01-19T09:10:38.137Z,71.61
2023-01-19T09:13:11.148Z,70.77
2023-01-19T09:15:39.729Z,70.49
2023-01-19T09:18:10.400Z,70.14
2023-01-19T09:20:39.310Z,70.09
2023-01-19T09:23:06.504Z,68.86
2023-01-19T09:25:33.374Z,68.64
2023-01-19T09:28:01.306Z,67.07
2023-01-19T09:30:28.807Z,66.70
2023-01-19T09:32:55.676Z,65.97
2023-01-19T09:35:22.419Z,65.94
2023-01-19T09:37:49.195Z,66.67
2023-01-19T09:40:20.947Z,65.87
2023-01-19T09:43:11.998Z,65.95
2023-01-19T09:46:01.781Z,65.22
2023-01-19T09:48:50.059Z,64.91
2023-01-19T09:51:28.261Z,62.02
2023-01-19T09:54:16.761Z,62.73
2023-01-19T09:56:45.407Z,63.18
2023-01-19T09:59:22.528Z,62.80
2023-01-19T10:02:18.139Z,61.03
2023-01-19T10:05:04.942Z,60.38
2023-01-19T10:08:16.607Z,60.82
2023-01-19T10:10:49.924Z,60.40
2023-01-19T10:13:30.742Z,60.14
2023-01-19T10:16:03.727Z,58.82
2023-01-19T10:18:51.902Z,59.49
2023-01-19T10:21:22.857Z,59.03
2023-01-19T10:23:52.331Z,58.31
2023-01-19T10:26:34.096Z,59.35
2023-01-19T10:29:19.938Z,58.30
2023-01-19T10:31:48.346Z,59.45
2023-01-19T10:34:23.022Z,59.28
2023-01-19T10:37:02.844Z,59.71
2023-01-19T10:39:29.995Z,58.81
2023-01-19T10:42:01.115Z,57.83
2023-01-19T10:44:35.143Z,59.11
2023-01-19T10:47:02.502Z,58.75
2023-01-19T10:49:42.876Z,57.65
2023-01-19T10:52:32.488Z,57.00
2023-01-19T10:55:01.100Z,58.52
2023-01-19T10:57:43.528Z,58.05
2023-01-19T11:00:42.271Z,57.87
2023-01-19T11:03:21.211Z,57.31
2023-01-19T11:05:51.133Z,56.95
2023-01-19T11:08:30.522Z,56.71
2023-01-19T11:11:08.723Z,57.42
2023-01-19T11:13:36.890Z,56.66
2023-01-19T11:16:28.735Z,57.27
2023-01-19T11:18:57.335Z,57.54
2023-01-19T11:21:27.103Z,58.50
2023-01-19T11:23:57.570Z,58.10
2023-01-19T11:26:39.583Z,58.11
2023-01-19T11:29:15.614Z,58.85
2023-01-19T11:31:42.348Z,58.72
2023-01-19T11:34:41.734Z,59.32
2023-01-19T11:37:30.240Z,59.32
2023-01-19T11:40:00.193Z,59.85
2023-01-19T11:42:30.369Z,59.37
2023-01-19T11:45:12.045Z,58.17
2023-01-19T11:47:43.315Z,58.88
2023-01-19T11:50:34.584Z,57.66
2023-01-19T11:53:04.051Z,58.53
2023-01-19T11:55:44.214Z,57.76
2023-01-19T11:58:17.245Z,58.02
2023-01-19T12:00:48.986Z,57.59
2023-01-19T12:03:24.152Z,57.73
2023-01-19T12:06:07.018Z,56.49
2023-01-19T12:08:39.984Z,57.29
2023-01-19T12:11:11.235Z,58.15
2023-01-19T12:13:40.716Z,57.57
2023-01-19T12:16:22.085Z,57.56
2023-01-19T12:18:55.672Z,56.74
2023-01-19T12:21:22.877Z,56.84
2023-01-19T12:24:13.223Z,57.13
2023-01-19T12:26:54.892Z,57.38
2023-01-19T12:29:25.890Z,57.52
2023-01-19T12:32:14.411Z,57.96
2023-01-19T12:34:43.855Z,58.26
2023-01-19T12:37:32.384Z,58.24
2023-01-19T12:40:25.823Z,57.82
2023-01-19T12:42:55.565Z,58.52
2023-01-19T12:45:32.217Z,57.77
2023-01-19T12:47:59.953Z,57.97
2023-01-19T12:50:29.445Z,56.90
2023-01-19T12:53:02.149Z,57.44
2023-01-19T12:55:33.295Z,57.00
2023-01-19T12:58:21.076Z,57.35
2023-01-19T13:00:50.196Z,57.07
2023-01-19T13:03:19.926Z,57.03
2023-01-19T13:05:49.411Z,57.56
2023-01-19T13:08:18.140Z,56.83
2023-01-19T13:10:54.223Z,57.45
2023-01-19T13:13:25.152Z,58.06
2023-01-19T13:15:55.902Z,56.77
2023-01-19T13:18:34.124Z,57.91
2023-01-19T13:21:05.384Z,57.53
2023-01-19T13:23:47.376Z,56.96
2023-01-19T13:26:16.972Z,58.51
2023-01-19T13:28:46.325Z,58.86
2023-01-19T13:31:14.063Z,58.06
2023-01-19T13:33:46.380Z,58.13
2023-01-19T13:36:23.766Z,57.61
2023-01-19T13:38:51.942Z,57.68
2023-01-19T13:41:25.097Z,57.88
2023-01-19T13:44:29.979Z,58.01
2023-01-19T13:46:59.618Z,57.03
2023-01-19T13:49:35.511Z,58.11
2023-01-19T13:52:19.445Z,56.84
2023-01-19T13:55:02.517Z,56.41
2023-01-19T13:57:39.554Z,57.00
2023-01-19T14:00:12.678Z,55.08
2023-01-19T14:02:55.234Z,55.98
2023-01-19T14:05:22.264Z,56.18
2023-01-19T14:07:59.176Z,55.18
2023-01-19T14:10:26.002Z,53.87
2023-01-19T14:13:04.729Z,54.96
2023-01-19T14:15:35.590Z,54.77
2023-01-19T14:18:17.648Z,54.70
2023-01-19T14:21:09.119Z,55.23
2023-01-19T14:23:51.043Z,55.65
2023-01-19T14:26:54.044Z,56.89
2023-01-19T14:29:32.766Z,56.79
2023-01-19T14:32:15.197Z,56.85
2023-01-19T14:34:43.226Z,56.66
2023-01-19T14:37:29.850Z,56.91
2023-01-19T14:39:56.497Z,57.79
2023-01-19T14:42:30.995Z,58.90
2023-01-19T14:45:02.284Z,58.63
2023-01-19T14:47:33.156Z,58.86
2023-01-19T14:50:07.521Z,59.21
2023-01-19T14:52:42.123Z,58.97
2023-01-19T14:55:21.043Z,59.64
2023-01-19T14:57:48.505Z,60.21
2023-01-19T15:00:20.439Z,60.50
2023-01-19T15:02:47.934Z,60.20
2023-01-19T15:05:14.779Z,60.59
2023-01-19T15:07:46.787Z,59.85
2023-01-19T15:10:19.282Z,59.82
2023-01-19T15:12:46.204Z,60.86
2023-01-19T15:15:15.720Z,60.86
2023-01-19T15:17:43.021Z,60.44
2023-01-19T15:20:21.757Z,60.35
2023-01-19T15:22:48.929Z,60.67
2023-01-19T15:25:21.893Z,60.65
2023-01-19T15:27:49.569Z,60.76
2023-01-19T15:30:23.672Z,61.33
2023-01-19T15:32:50.732Z,60.85
2023-01-19T15:35:20.106Z,61.64
2023-01-19T15:37:47.925Z,62.08
2023-01-19T15:40:15.009Z,62.35
2023-01-19T15:42:42.773Z,63.03
2023-01-19T15:45:48.612Z,62.37
2023-01-19T15:48:15.517Z,62.90
2023-01-19T15:50:45.074Z,63.27
2023-01-19T15:53:17.920Z,63.32
2023-01-19T15:55:49.835Z,63.83
2023-01-19T15:58:17.576Z,63.95
2023-01-19T16:00:44.772Z,63.91
2023-01-19T16:03:12.045Z,64.82
2023-01-19T16:05:43.604Z,65.30
2023-01-19T16:08:12.102Z,65.90
2023-01-19T16:10:39.607Z,66.37
2023-01-19T16:13:06.555Z,66.88
2023-01-19T16:15:36.557Z,67.26
2023-01-19T16:18:04.295Z,67.28
2023-01-19T16:20:31.115Z,67.67
2023-01-19T16:23:06.257Z,67.97
2023-01-19T16:25:41.247Z,67.88
2023-01-19T16:28:08.462Z,68.14
2023-01-19T16:30:35.494Z,68.40
2023-01-19T16:33:02.342Z,68.66
2023-01-19T16:35:29.357Z,68.28
2023-01-19T16:37:56.077Z,68.73
2023-01-19T16:40:22.835Z,68.90
2023-01-19T16:42:49.887Z,69.18
2023-01-19T16:45:16.935Z,69.08
2023-01-19T16:47:45.498Z,69.56
2023-01-19T16:50:12.612Z,70.13
2023-01-19T16:52:39.641Z,69.32
2023-01-19T16:55:09.586Z,69.37
2023-01-19T16:57:39.905Z,69.24
2023-01-19T17:00:09.685Z,69.01
2023-01-19T17:02:36.724Z,69.10
2023-01-19T17:05:03.944Z,69.72
2023-01-19T17:07:33.808Z,69.24
2023-01-19T17:10:00.950Z,68.87
2023-01-19T17:12:27.658Z,69.13
2023-01-19T17:14:54.668Z,69.01
2023-01-19T17:17:21.890Z,67.94
2023-01-19T17:19:48.819Z,68.08
2023-01-19T17:22:15.750Z,68.33
2023-01-19T17:24:44.010Z,68.73
2023-01-19T17:27:11.578Z,67.69
2023-01-19T17:29:38.371Z,66.79
2023-01-19T17:32:05.481Z,68.06
2023-01-19T17:34:32.462Z,68.09
2023-01-19T17:37:03.318Z,68.04
2023-01-19T17:39:30.992Z,67.94
2023-01-19T17:41:58.537Z,68.54
2023-01-19T17:44:25.233Z,69.36
2023-01-19T17:46:52.126Z,69.54
2023-01-19T17:49:19.186Z,69.03
2023-01-19T17:51:46.845Z,69.68
2023-01-19T17:54:14.532Z,70.56
2023-01-19T17:56:41.956Z,69.41
2023-01-19T17:59:08.982Z,69.54
2023-01-19T18:01:40.773Z,69.95
2023-01-19T18:04:09.387Z,69.74
2023-01-19T18:06:37.350Z,69.99
2023-01-19T18:09:05.248Z,69.31
2023-01-19T18:11:32.701Z,69.27
2023-01-19T18:14:03.012Z,69.49
2023-01-19T18:16:30.439Z,70.11
2023-01-19T18:18:57.415Z,70.94
2023-01-19T18:21:27.460Z,71.17
2023-01-19T18:24:02.504Z,70.92
2023-01-19T18:26:31.513Z,70.96
2023-01-19T18:28:58.878Z,71.41
2023-01-19T18:31:26.933Z,71.00
2023-01-19T18:33:54.317Z,71.83
2023-01-19T18:36:21.787Z,71.67
2023-01-19T18:38:49.739Z,72.69
2023-01-19T18:41:18.117Z,72.22
2023-01-19T18:43:45.460Z,72.26
2023-01-19T18:46:18.028Z,72.18
2023-01-19T18:48:45.179Z,72.20
2023-01-19T18:51:14.731Z,71.69
2023-01-19T18:53:42.960Z,71.36
2023-01-19T18:56:12.862Z,72.28
2023-01-19T18:58:40.542Z,72.64
2023-01-19T19:01:24.600Z,72.36
2023-01-19T19:03:52.844Z,72.05
2023-01-19T19:06:21.031Z,72.39
2023-01-19T19:08:52.087Z,72.83
2023-01-19T19:11:21.382Z,73.00
2023-01-19T19:14:00.330Z,72.04
2023-01-19T19:16:28.853Z,72.51
2023-01-19T19:18:56.343Z,72.63
2023-01-19T19:21:25.582Z,72.36
2023-01-19T19:23:54.648Z,73.68
2023-01-19T19:26:22.058Z,71.70
2023-01-19T19:28:52.144Z,71.80
2023-01-19T19:31:21.202Z,71.58
2023-01-19T19:33:51.728Z,72.22
2023-01-19T19:36:23.796Z,71.97
2023-01-19T19:38:50.642Z,72.14
2023-01-19T19:41:25.032Z,73.02
2023-01-19T19:43:51.918Z,72.44
2023-01-19T19:46:20.376Z,72.22
2023-01-19T19:48:48.887Z,73.06
2023-01-19T19:51:25.797Z,72.80
2023-01-19T19:53:59.170Z,73.12
2023-01-19T19:56:28.443Z,73.48
2023-01-19T19:58:56.802Z,74.42
2023-01-19T20:01:32.548Z,73.23
2023-01-19T20:04:06.938Z,73.68
2023-01-19T20:06:39.012Z,73.50
2023-01-19T20:09:08.120Z,73.52
2023-01-19T20:11:35.701Z,74.33
2023-01-19T20:14:10.219Z,74.65
2023-01-19T20:16:37.513Z,75.03
2023-01-19T20:19:04.986Z,75.21
2023-01-19T20:21:39.403Z,75.15
2023-01-19T20:24:10.401Z,75.85
2023-01-19T20:26:41.143Z,75.78
2023-01-19T20:29:10.404Z,75.45
2023-01-19T20:31:40.737Z,75.90
2023-01-19T20:34:09.381Z,76.29
2023-01-19T20:36:36.896Z,76.19
2023-01-19T20:39:09.609Z,75.83
2023-01-19T20:41:43.411Z,75.84
2023-01-19T20:44:12.154Z,76.52
2023-01-19T20:46:39.715Z,76.56
2023-01-19T20:49:07.455Z,77.72
2023-01-19T20:51:36.285Z,76.09
2023-01-19T20:54:04.114Z,76.90
2023-01-19T20:56:30.977Z,78.55
2023-01-19T20:58:59.418Z,76.19
2023-01-19T21:01:26.334Z,77.10
2023-01-19T21:03:53.750Z,76.54
2023-01-19T21:06:21.762Z,76.32
2023-01-19T21:08:51.908Z,76.43
2023-01-19T21:11:20.993Z,76.31
2023-01-19T21:13:49.070Z,77.29
2023-01-19T21:16:15.888Z,77.21
2023-01-19T21:18:43.046Z,76.41
2023-01-19T21:21:20.909Z,77.10
2023-01-19T21:24:00.000Z,76.20
2023-01-19T21:26:26.908Z,76.55
2023-01-19T21:28:53.890Z,76.29
2023-01-19T21:31:22.757Z,76.60
2023-01-19T21:33:53.601Z,76.28
2023-01-19T21:36:21.398Z,76.75
2023-01-19T21:38:48.481Z,76.74
2023-01-19T21:41:16.527Z,76.95
2023-01-19T21:43:43.615Z,76.70
2023-01-19T21:46:17.651Z,76.70
2023-01-19T21:48:46.033Z,76.58
2023-01-19T21:51:13.691Z,76.05
2023-01-19T21:53:43.407Z,76.95
2023-01-19T21:56:11.347Z,77.87
2023-01-19T21:58:38.503Z,77.80
2023-01-19T22:01:09.832Z,77.99
2023-01-19T22:03:36.967Z,77.45
2023-01-19T22:06:08.796Z,78.96
2023-01-19T22:08:35.935Z,79.03
2023-01-19T22:11:07.750Z,79.60
2023-01-19T22:13:36.401Z,78.96
2023-01-19T22:16:08.180Z,79.02
2023-01-19T22:18:36.122Z,79.82
2023-01-19T22:21:20.374Z,79.83
2023-01-19T22:23:52.170Z,79.66
2023-01-19T22:26:19.137Z,80.44
2023-01-19T22:28:46.667Z,80.54
2023-01-19T22:31:18.544Z,80.80
2023-01-19T22:33:45.768Z,79.72
2023-01-19T22:36:16.839Z,80.41
2023-01-19T22:38:44.816Z,80.99
2023-01-19T22:41:15.574Z,82.72
2023-01-19T22:43:42.743Z,81.82
2023-01-19T22:46:09.910Z,81.29
2023-01-19T22:48:36.734Z,82.36
2023-01-19T22:51:03.816Z,81.53
2023-01-19T22:53:31.309Z,82.58
2023-01-19T22:55:58.161Z,82.54
2023-01-19T22:58:25.216Z,81.17
2023-01-19T23:00:52.139Z,80.31
2023-01-19T23:03:18.919Z,81.01
2023-01-19T23:05:45.678Z,81.60
2023-01-19T23:08:15.002Z,81.02
2023-01-19T23:10:41.955Z,81.30
2023-01-19T23:13:11.577Z,80.81
2023-01-19T23:15:38.302Z,80.58
2023-01-19T23:18:05.319Z,80.96
2023-01-19T23:20:32.019Z,81.96
2023-01-19T23:22:58.661Z,81.12
2023-01-19T23:25:25.368Z,81.09
2023-01-19T23:27:52.110Z,82.22
2023-01-19T23:30:19.506Z,83.16
2023-01-19T23:32:49.984Z,81.08
2023-01-19T23:35:16.970Z,79.96
2023-01-19T23:37:44.035Z,79.89
2023-01-19T23:40:11.513Z,78.76
2023-01-19T23:42:38.500Z,74.91
2023-01-19T23:45:06.805Z,71.97
2023-01-19T23:47:35.802Z,70.20
2023-01-19T23:50:06.376Z,70.16
2023-01-19T23:52:36.253Z,68.91
2023-01-19T23:55:03.234Z,68.68
2023-01-19T23:57:34.768Z,68.37
